sensor_id;sensor_type;location;lat;lon;timestamp;pressure;altitude;pressure_sealevel;temperature;humidity
47763;BME280;33526;42.690;23.322;2023-03-24T00:02:06;95168.47;;;7.63;83.34
47763;BME280;33526;42.690;23.322;2023-03-24T00:04:32;95177.25;;;7.62;84.37
47763;BME280;33526;42.690;23.322;2023-03-24T00:06:58;95171.13;;;7.67;84.23
47763;BME280;33526;42.690;23.322;2023-03-24T00:09:25;95167.19;;;7.77;84.95
47763;BME280;33526;42.690;23.322;2023-03-24T00:11:52;95161.97;;;7.79;85.10
47763;BME280;33526;42.690;23.322;2023-03-24T00:14:18;95165.09;;;7.81;85.37
47763;BME280;33526;42.690;23.322;2023-03-24T00:16:43;95160.63;;;7.84;84.68
47763;BME280;33526;42.690;23.322;2023-03-24T00:19:09;95176.34;;;7.78;84.90
47763;BME280;33526;42.690;23.322;2023-03-24T00:21:35;95169.09;;;7.80;85.32
47763;BME280;33526;42.690;23.322;2023-03-24T00:24:01;95181.44;;;7.79;85.16
47763;BME280;33526;42.690;23.322;2023-03-24T00:26:28;95177.88;;;7.79;85.21
47763;BME280;33526;42.690;23.322;2023-03-24T00:28:55;95176.47;;;7.74;85.64
47763;BME280;33526;42.690;23.322;2023-03-24T00:31:21;95182.69;;;7.78;85.58
47763;BME280;33526;42.690;23.322;2023-03-24T00:33:48;95182.47;;;7.73;85.58
47763;BME280;33526;42.690;23.322;2023-03-24T00:36:15;95183.91;;;7.64;85.58
47763;BME280;33526;42.690;23.322;2023-03-24T00:38:41;95177.16;;;7.53;84.61
47763;BME280;33526;42.690;23.322;2023-03-24T00:41:06;95169.81;;;7.46;84.99
47763;BME280;33526;42.690;23.322;2023-03-24T00:43:32;95176.81;;;7.38;84.98
47763;BME280;33526;42.690;23.322;2023-03-24T00:45:58;95167.47;;;7.32;84.96
47763;BME280;33526;42.690;23.322;2023-03-24T00:48:25;95162.78;;;7.28;85.10
47763;BME280;33526;42.690;23.322;2023-03-24T00:50:51;95161.47;;;7.20;84.68
47763;BME280;33526;42.690;23.322;2023-03-24T00:53:17;95161.47;;;7.20;84.81
47763;BME280;33526;42.690;23.322;2023-03-24T00:55:43;95171.56;;;7.14;87.85
47763;BME280;33526;42.690;23.322;2023-03-24T00:58:15;95169.66;;;7.11;88.63
47763;BME280;33526;42.690;23.322;2023-03-24T01:00:43;95166.44;;;7.13;88.79
47763;BME280;33526;42.690;23.322;2023-03-24T01:03:08;95162.56;;;7.10;88.54
47763;BME280;33526;42.690;23.322;2023-03-24T01:05:34;95157.88;;;7.07;88.46
47763;BME280;33526;42.690;23.322;2023-03-24T01:08:00;95158.66;;;6.95;89.24
47763;BME280;33526;42.690;23.322;2023-03-24T01:10:29;95165.56;;;6.90;89.74
47763;BME280;33526;42.690;23.322;2023-03-24T01:12:55;95163.22;;;6.88;89.76
47763;BME280;33526;42.690;23.322;2023-03-24T01:15:23;95160.97;;;6.83;90.07
47763;BME280;33526;42.690;23.322;2023-03-24T01:17:49;95163.41;;;6.81;90.23
47763;BME280;33526;42.690;23.322;2023-03-24T01:20:14;95156.28;;;6.80;90.18
47763;BME280;33526;42.690;23.322;2023-03-24T01:22:41;95146.94;;;6.74;90.79
47763;BME280;33526;42.690;23.322;2023-03-24T01:25:21;95148.75;;;6.81;91.25
47763;BME280;33526;42.690;23.322;2023-03-24T01:27:47;95148.28;;;6.82;90.89
47763;BME280;33526;42.690;23.322;2023-03-24T01:30:13;95149.84;;;6.83;90.10
47763;BME280;33526;42.690;23.322;2023-03-24T01:32:40;95151.88;;;6.83;89.80
47763;BME280;33526;42.690;23.322;2023-03-24T01:35:05;95149.84;;;6.83;90.19
47763;BME280;33526;42.690;23.322;2023-03-24T01:37:31;95140.31;;;6.84;90.00
47763;BME280;33526;42.690;23.322;2023-03-24T01:39:57;95143.41;;;6.86;89.31
47763;BME280;33526;42.690;23.322;2023-03-24T01:42:23;95149.53;;;6.81;89.21
47763;BME280;33526;42.690;23.322;2023-03-24T01:44:49;95148.28;;;6.82;89.45
47763;BME280;33526;42.690;23.322;2023-03-24T01:47:15;95151.75;;;6.86;89.39
47763;BME280;33526;42.690;23.322;2023-03-24T01:49:53;95152.19;;;6.85;88.89
47763;BME280;33526;42.690;23.322;2023-03-24T01:52:28;95157.84;;;6.81;88.93
47763;BME280;33526;42.690;23.322;2023-03-24T01:54:55;95164.69;;;6.64;89.80
47763;BME280;33526;42.690;23.322;2023-03-24T01:59:47;95153.13;;;6.53;89.88
47763;BME280;33526;42.690;23.322;2023-03-24T02:02:13;95151.91;;;6.54;90.04
47763;BME280;33526;42.690;23.322;2023-03-24T02:04:41;95157.00;;;6.55;89.96
47763;BME280;33526;42.690;23.322;2023-03-24T02:07:53;95155.38;;;6.58;89.70
47763;BME280;33526;42.690;23.322;2023-03-24T02:09:52;95164.91;;;6.57;89.33
47763;BME280;33526;42.690;23.322;2023-03-24T02:12:17;95152.16;;;6.59;89.57
47763;BME280;33526;42.690;23.322;2023-03-24T02:14:42;95157.25;;;6.61;89.65
47763;BME280;33526;42.690;23.322;2023-03-24T02:30:22;95165.84;;;6.37;87.91
47763;BME280;33526;42.690;23.322;2023-03-24T02:35:39;95161.31;;;6.43;88.47
47763;BME280;33526;42.690;23.322;2023-03-24T02:48:43;95137.88;;;6.44;87.28
47763;BME280;33526;42.690;23.322;2023-03-24T02:51:12;95133.56;;;6.43;87.41
47763;BME280;33526;42.690;23.322;2023-03-24T02:59:06;95135.03;;;6.61;87.28
47763;BME280;33526;42.690;23.322;2023-03-24T03:04:05;95132.41;;;6.70;87.33
47763;BME280;33526;42.690;23.322;2023-03-24T03:06:33;95135.50;;;6.72;87.19
47763;BME280;33526;42.690;23.322;2023-03-24T03:09:03;95121.28;;;6.70;87.59
47763;BME280;33526;42.690;23.322;2023-03-24T03:11:31;95121.63;;;6.72;86.99
47763;BME280;33526;42.690;23.322;2023-03-24T03:13:58;95132.19;;;6.77;86.53
47763;BME280;33526;42.690;23.322;2023-03-24T03:17:08;95133.94;;;6.71;86.47
47763;BME280;33526;42.690;23.322;2023-03-24T03:19:18;95128.16;;;6.65;86.91
47763;BME280;33526;42.690;23.322;2023-03-24T03:21:45;95133.50;;;6.73;87.10
47763;BME280;33526;42.690;23.322;2023-03-24T03:24:16;95134.59;;;6.75;86.81
47763;BME280;33526;42.690;23.322;2023-03-24T03:26:44;95135.94;;;6.70;86.91
47763;BME280;33526;42.690;23.322;2023-03-24T03:29:13;95137.16;;;6.69;87.46
47763;BME280;33526;42.690;23.322;2023-03-24T03:31:41;95124.06;;;6.70;87.43
47763;BME280;33526;42.690;23.322;2023-03-24T03:34:14;95122.94;;;6.67;87.62
47763;BME280;33526;42.690;23.322;2023-03-24T03:36:47;95121.13;;;6.61;87.63
47763;BME280;33526;42.690;23.322;2023-03-24T03:39:33;95118.00;;;6.59;87.89
47763;BME280;33526;42.690;23.322;2023-03-24T03:42:02;95118.00;;;6.59;88.03
47763;BME280;33526;42.690;23.322;2023-03-24T03:44:29;95125.34;;;6.53;87.87
47763;BME280;33526;42.690;23.322;2023-03-24T03:46:55;95122.13;;;6.54;87.98
47763;BME280;33526;42.690;23.322;2023-03-24T03:49:20;95126.34;;;6.59;87.96
47763;BME280;33526;42.690;23.322;2023-03-24T03:51:46;95129.81;;;6.63;87.67
47763;BME280;33526;42.690;23.322;2023-03-24T03:54:11;95129.81;;;6.63;87.53
47763;BME280;33526;42.690;23.322;2023-03-24T03:56:37;95134.69;;;6.59;87.72
47763;BME280;33526;42.690;23.322;2023-03-24T03:59:06;95135.59;;;6.56;87.82
47763;BME280;33526;42.690;23.322;2023-03-24T04:01:32;95141.13;;;6.56;87.98
47763;BME280;33526;42.690;23.322;2023-03-24T04:06:54;95143.00;;;6.46;88.05
47763;BME280;33526;42.690;23.322;2023-03-24T04:25:13;95143.81;;;6.30;88.80
47763;BME280;33526;42.690;23.322;2023-03-24T04:27:46;95151.25;;;6.20;88.66
47763;BME280;33526;42.690;23.322;2023-03-24T04:35:06;95138.84;;;6.08;89.31
47763;BME280;33526;42.690;23.322;2023-03-24T04:37:35;95149.72;;;6.03;89.25
47763;BME280;33526;42.690;23.322;2023-03-24T04:40:05;95157.41;;;6.11;89.17
47763;BME280;33526;42.690;23.322;2023-03-24T04:42:36;95160.44;;;6.17;89.19
47763;BME280;33526;42.690;23.322;2023-03-24T04:45:04;95160.75;;;6.36;88.64
47763;BME280;33526;42.690;23.322;2023-03-24T04:47:32;95164.63;;;6.38;87.71
47763;BME280;33526;42.690;23.322;2023-03-24T04:50:01;95166.69;;;6.50;86.85
47763;BME280;33526;42.690;23.322;2023-03-24T04:52:27;95167.81;;;6.66;85.86
47763;BME280;33526;42.690;23.322;2023-03-24T04:54:53;95170.50;;;6.82;84.64
47763;BME280;33526;42.690;23.322;2023-03-24T04:57:18;95169.63;;;6.85;83.15
47763;BME280;33526;42.690;23.322;2023-03-24T04:59:44;95176.78;;;6.86;83.06
47763;BME280;33526;42.690;23.322;2023-03-24T05:02:10;95184.63;;;6.75;82.88
47763;BME280;33526;42.690;23.322;2023-03-24T05:04:35;95182.53;;;6.79;82.56
47763;BME280;33526;42.690;23.322;2023-03-24T05:07:01;95182.13;;;6.94;82.45
47763;BME280;33526;42.690;23.322;2023-03-24T05:09:27;95182.22;;;6.90;81.80
47763;BME280;33526;42.690;23.322;2023-03-24T05:11:55;95182.75;;;6.72;81.33
47763;BME280;33526;42.690;23.322;2023-03-24T05:14:21;95182.53;;;6.79;82.04
47763;BME280;33526;42.690;23.322;2023-03-24T05:16:46;95188.00;;;6.83;80.94
47763;BME280;33526;42.690;23.322;2023-03-24T05:19:11;95179.84;;;6.63;80.17
47763;BME280;33526;42.690;23.322;2023-03-24T05:21:37;95192.00;;;6.53;80.98
47763;BME280;33526;42.690;23.322;2023-03-24T05:24:02;95198.03;;;6.64;80.86
47763;BME280;33526;42.690;23.322;2023-03-24T05:26:28;95191.94;;;6.69;80.38
47763;BME280;33526;42.690;23.322;2023-03-24T05:28:53;95189.84;;;6.73;80.13
47763;BME280;33526;42.690;23.322;2023-03-24T05:31:19;95187.41;;;6.75;79.92
47763;BME280;33526;42.690;23.322;2023-03-24T05:33:44;95197.63;;;6.78;79.75
47763;BME280;33526;42.690;23.322;2023-03-24T05:36:10;95196.22;;;6.86;79.90
47763;BME280;33526;42.690;23.322;2023-03-24T05:38:35;95198.31;;;6.82;80.07
47763;BME280;33526;42.690;23.322;2023-03-24T05:41:01;95198.09;;;6.89;79.24
47763;BME280;33526;42.690;23.322;2023-03-24T05:43:26;95192.97;;;6.75;79.58
47763;BME280;33526;42.690;23.322;2023-03-24T05:45:52;95197.63;;;6.78;79.84
47763;BME280;33526;42.690;23.322;2023-03-24T05:48:17;95185.78;;;6.91;79.84
47763;BME280;33526;42.690;23.322;2023-03-24T05:50:42;95195.81;;;7.01;79.75
47763;BME280;33526;42.690;23.322;2023-03-24T05:53:07;95197.91;;;6.97;79.51
47763;BME280;33526;42.690;23.322;2023-03-24T05:55:33;95190.78;;;6.96;79.51
47763;BME280;33526;42.690;23.322;2023-03-24T05:57:59;95193.25;;;6.94;79.60
47763;BME280;33526;42.690;23.322;2023-03-24T06:00:31;95194.34;;;7.09;79.26
47763;BME280;33526;42.690;23.322;2023-03-24T06:02:57;95198.28;;;7.12;79.07
47763;BME280;33526;42.690;23.322;2023-03-24T06:05:22;95200.25;;;7.11;78.95
47763;BME280;33526;42.690;23.322;2023-03-24T06:07:48;95196.59;;;7.14;79.29
47763;BME280;33526;42.690;23.322;2023-03-24T06:10:13;95193.81;;;7.14;79.50
47763;BME280;33526;42.690;23.322;2023-03-24T06:12:42;95202.81;;;7.18;79.42
47763;BME280;33526;42.690;23.322;2023-03-24T06:15:07;95202.97;;;7.27;79.44
47763;BME280;33526;42.690;23.322;2023-03-24T06:17:33;95204.84;;;7.31;78.67
47763;BME280;33526;42.690;23.322;2023-03-24T06:19:58;95198.50;;;7.30;79.01
47763;BME280;33526;42.690;23.322;2023-03-24T06:22:30;95202.31;;;7.49;78.06
47763;BME280;33526;42.690;23.322;2023-03-24T06:24:56;95211.09;;;7.60;77.98
47763;BME280;33526;42.690;23.322;2023-03-24T06:27:22;95207.75;;;7.65;77.40
47763;BME280;33526;42.690;23.322;2023-03-24T06:29:50;95207.53;;;7.73;76.98
47763;BME280;33526;42.690;23.322;2023-03-24T06:32:17;95206.84;;;7.69;77.09
47763;BME280;33526;42.690;23.322;2023-03-24T06:34:42;95211.63;;;7.81;76.69
47763;BME280;33526;42.690;23.322;2023-03-24T06:37:07;95202.81;;;7.82;76.60
47763;BME280;33526;42.690;23.322;2023-03-24T06:39:33;95209.25;;;7.92;76.41
47763;BME280;33526;42.690;23.322;2023-03-24T06:41:58;95211.00;;;8.12;75.99
47763;BME280;33526;42.690;23.322;2023-03-24T06:44:23;95212.56;;;8.13;75.18
47763;BME280;33526;42.690;23.322;2023-03-24T06:46:49;95214.47;;;8.16;75.30
47763;BME280;33526;42.690;23.322;2023-03-24T06:49:14;95217.00;;;8.23;75.01
47763;BME280;33526;42.690;23.322;2023-03-24T06:51:39;95213.44;;;8.22;75.20
47763;BME280;33526;42.690;23.322;2023-03-24T06:54:05;95204.19;;;8.26;75.24
47763;BME280;33526;42.690;23.322;2023-03-24T06:56:30;95130.78;;;7.84;75.39
47763;BME280;33526;42.690;23.322;2023-03-24T06:58:56;95210.34;;;8.55;74.83
47763;BME280;33526;42.690;23.322;2023-03-24T07:01:21;95207.19;;;8.66;74.35
47763;BME280;33526;42.690;23.322;2023-03-24T07:03:48;95213.47;;;8.79;73.71
47763;BME280;33526;42.690;23.322;2023-03-24T07:06:13;95214.56;;;8.82;73.79
47763;BME280;33526;42.690;23.322;2023-03-24T07:08:39;95204.41;;;8.66;75.49
47763;BME280;33526;42.690;23.322;2023-03-24T07:11:05;95221.72;;;8.83;75.13
47763;BME280;33526;42.690;23.322;2023-03-24T07:13:32;95229.16;;;8.86;74.60
47763;BME280;33526;42.690;23.322;2023-03-24T07:15:57;95225.19;;;8.96;74.03
47763;BME280;33526;42.690;23.322;2023-03-24T07:18:23;95220.53;;;9.15;73.34
47763;BME280;33526;42.690;23.322;2023-03-24T07:20:48;95232.19;;;9.23;72.20
47763;BME280;33526;42.690;23.322;2023-03-24T07:23:13;95233.31;;;9.26;72.26
47763;BME280;33526;42.690;23.322;2023-03-24T07:25:39;95232.00;;;9.17;72.19
47763;BME280;33526;42.690;23.322;2023-03-24T07:28:04;95226.19;;;9.03;72.76
47763;BME280;33526;42.690;23.322;2023-03-24T07:30:30;95226.41;;;9.17;72.66
47763;BME280;33526;42.690;23.322;2023-03-24T07:32:55;95223.91;;;9.42;72.36
47763;BME280;33526;42.690;23.322;2023-03-24T07:35:20;95224.91;;;9.57;71.28
47763;BME280;33526;42.690;23.322;2023-03-24T07:37:46;95224.72;;;9.83;70.75
47763;BME280;33526;42.690;23.322;2023-03-24T07:40:12;95227.09;;;10.03;70.11
47763;BME280;33526;42.690;23.322;2023-03-24T07:42:38;95221.56;;;10.21;69.61
47763;BME280;33526;42.690;23.322;2023-03-24T07:45:06;95221.25;;;10.28;68.55
47763;BME280;33526;42.690;23.322;2023-03-24T07:47:33;95218.78;;;10.30;68.11
47763;BME280;33526;42.690;23.322;2023-03-24T07:50:00;95221.31;;;10.47;67.90
47763;BME280;33526;42.690;23.322;2023-03-24T07:52:28;95220.69;;;10.61;67.67
47763;BME280;33526;42.690;23.322;2023-03-24T07:54:54;95212.00;;;10.50;67.17
47763;BME280;33526;42.690;23.322;2023-03-24T07:57:19;95206.09;;;10.48;67.34
47763;BME280;33526;42.690;23.322;2023-03-24T07:59:45;95209.53;;;10.52;67.12
47763;BME280;33526;42.690;23.322;2023-03-24T08:02:15;95203.63;;;10.68;67.03
47763;BME280;33526;42.690;23.322;2023-03-24T08:04:40;95194.88;;;10.94;66.90
47763;BME280;33526;42.690;23.322;2023-03-24T08:07:06;95201.75;;;10.93;65.71
47763;BME280;33526;42.690;23.322;2023-03-24T08:09:32;95190.97;;;11.10;65.73
47763;BME280;33526;42.690;23.322;2023-03-24T08:11:58;95193.13;;;11.24;64.96
47763;BME280;33526;42.690;23.322;2023-03-24T08:14:23;95201.47;;;11.43;64.57
47763;BME280;33526;42.690;23.322;2023-03-24T08:16:48;95198.78;;;11.58;64.05
47763;BME280;33526;42.690;23.322;2023-03-24T08:19:14;95181.47;;;11.69;63.69
47763;BME280;33526;42.690;23.322;2023-03-24T08:21:39;95196.22;;;11.78;62.69
47763;BME280;33526;42.690;23.322;2023-03-24T08:24:05;95191.03;;;11.53;63.48
47763;BME280;33526;42.690;23.322;2023-03-24T08:26:30;95182.25;;;11.69;62.89
47763;BME280;33526;42.690;23.322;2023-03-24T08:28:59;95187.06;;;11.69;62.43
47763;BME280;33526;42.690;23.322;2023-03-24T08:31:29;95178.91;;;11.46;63.08
47763;BME280;33526;42.690;23.322;2023-03-24T08:33:55;95178.84;;;11.65;63.00
47763;BME280;33526;42.690;23.322;2023-03-24T08:36:20;95180.97;;;11.70;62.97
47763;BME280;33526;42.690;23.322;2023-03-24T08:38:49;95177.28;;;11.97;62.13
47763;BME280;33526;42.690;23.322;2023-03-24T08:41:15;95167.97;;;12.24;61.13
47763;BME280;33526;42.690;23.322;2023-03-24T08:43:41;95159.78;;;12.36;59.95
47763;BME280;33526;42.690;23.322;2023-03-24T08:46:06;95166.38;;;12.48;59.67
47763;BME280;33526;42.690;23.322;2023-03-24T08:48:32;95154.22;;;12.66;58.71
47763;BME280;33526;42.690;23.322;2023-03-24T08:50:58;95163.47;;;12.81;58.45
47763;BME280;33526;42.690;23.322;2023-03-24T08:53:23;95151.09;;;13.03;58.29
47763;BME280;33526;42.690;23.322;2023-03-24T08:55:48;95154.09;;;13.14;57.94
47763;BME280;33526;42.690;23.322;2023-03-24T08:58:14;95146.34;;;13.09;57.21
47763;BME280;33526;42.690;23.322;2023-03-24T09:00:40;95139.00;;;13.26;56.59
47763;BME280;33526;42.690;23.322;2023-03-24T09:03:08;95139.56;;;13.15;56.88
47763;BME280;33526;42.690;23.322;2023-03-24T09:05:36;95133.84;;;13.25;57.00
47763;BME280;33526;42.690;23.322;2023-03-24T09:08:01;95133.50;;;13.32;56.97
47763;BME280;33526;42.690;23.322;2023-03-24T09:10:27;95128.69;;;13.68;55.50
47763;BME280;33526;42.690;23.322;2023-03-24T09:12:52;95125.28;;;13.79;55.64
47763;BME280;33526;42.690;23.322;2023-03-24T09:15:19;95125.13;;;13.88;55.07
47763;BME280;33526;42.690;23.322;2023-03-24T09:17:44;95123.28;;;14.00;54.65
47763;BME280;33526;42.690;23.322;2023-03-24T09:20:11;95118.41;;;13.80;54.86
47763;BME280;33526;42.690;23.322;2023-03-24T09:22:38;95119.16;;;13.80;54.67
47763;BME280;33526;42.690;23.322;2023-03-24T09:25:03;95115.19;;;13.87;54.67
47763;BME280;33526;42.690;23.322;2023-03-24T09:27:28;95117.72;;;14.05;54.04
47763;BME280;33526;42.690;23.322;2023-03-24T09:29:55;95124.28;;;14.17;53.88
47763;BME280;33526;42.690;23.322;2023-03-24T09:32:20;95110.84;;;14.27;53.72
47763;BME280;33526;42.690;23.322;2023-03-24T09:34:45;95112.81;;;14.21;53.89
47763;BME280;33526;42.690;23.322;2023-03-24T09:37:10;95108.78;;;14.27;53.43
47763;BME280;33526;42.690;23.322;2023-03-24T09:39:36;95102.56;;;14.18;53.83
47763;BME280;33526;42.690;23.322;2023-03-24T09:42:04;95097.91;;;14.14;53.69
47763;BME280;33526;42.690;23.322;2023-03-24T09:44:33;95096.13;;;14.38;53.86
47763;BME280;33526;42.690;23.322;2023-03-24T09:49:36;95080.97;;;14.76;51.97
47763;BME280;33526;42.690;23.322;2023-03-24T09:52:03;95082.69;;;14.68;51.83
47763;BME280;33526;42.690;23.322;2023-03-24T09:57:17;95071.22;;;14.71;51.54
47763;BME280;33526;42.690;23.322;2023-03-24T09:59:45;95070.22;;;15.01;51.00
47763;BME280;33526;42.690;23.322;2023-03-24T10:02:15;95069.72;;;15.02;50.09
47763;BME280;33526;42.690;23.322;2023-03-24T10:04:40;95078.47;;;15.10;49.41
47763;BME280;33526;42.690;23.322;2023-03-24T10:07:18;95071.47;;;15.00;48.67
47763;BME280;33526;42.690;23.322;2023-03-24T10:09:56;95068.31;;;15.18;48.68
47763;BME280;33526;42.690;23.322;2023-03-24T10:12:29;95065.38;;;15.39;48.30
47763;BME280;33526;42.690;23.322;2023-03-24T10:22:59;95053.81;;;15.68;48.06
47763;BME280;33526;42.690;23.322;2023-03-24T10:28:02;95049.78;;;15.81;44.50
47763;BME280;33526;42.690;23.322;2023-03-24T10:30:34;95053.69;;;15.89;44.62
47763;BME280;33526;42.690;23.322;2023-03-24T10:33:03;95061.19;;;16.03;45.54
47763;BME280;33526;42.690;23.322;2023-03-24T10:35:30;95050.59;;;15.81;45.98
47763;BME280;33526;42.690;23.322;2023-03-24T10:37:57;95051.34;;;15.82;46.64
47763;BME280;33526;42.690;23.322;2023-03-24T10:40:25;95037.81;;;15.92;46.93
47763;BME280;33526;42.690;23.322;2023-03-24T10:42:51;95034.56;;;16.04;46.41
47763;BME280;33526;42.690;23.322;2023-03-24T10:45:23;95037.16;;;16.14;46.88
47763;BME280;33526;42.690;23.322;2023-03-24T10:47:49;95033.41;;;16.45;45.80
47763;BME280;33526;42.690;23.322;2023-03-24T10:50:15;95033.91;;;16.43;45.09
47763;BME280;33526;42.690;23.322;2023-03-24T10:52:45;95033.16;;;16.49;44.56
47763;BME280;33526;42.690;23.322;2023-03-24T10:55:15;95031.84;;;16.38;44.65
47763;BME280;33526;42.690;23.322;2023-03-24T10:57:42;95031.56;;;16.36;45.48
47763;BME280;33526;42.690;23.322;2023-03-24T11:00:08;95028.50;;;16.34;45.44
47763;BME280;33526;42.690;23.322;2023-03-24T11:02:40;95025.66;;;16.29;45.05
47763;BME280;33526;42.690;23.322;2023-03-24T11:05:17;95022.34;;;16.41;44.44
47763;BME280;33526;42.690;23.322;2023-03-24T11:07:44;95026.78;;;16.65;44.25
47763;BME280;33526;42.690;23.322;2023-03-24T11:12:40;95018.03;;;16.57;44.80
47763;BME280;33526;42.690;23.322;2023-03-24T11:18:06;95006.00;;;16.79;44.93
47763;BME280;33526;42.690;23.322;2023-03-24T11:22:58;94997.56;;;16.85;42.40
47763;BME280;33526;42.690;23.322;2023-03-24T11:25:28;94996.81;;;17.07;40.87
47763;BME280;33526;42.690;23.322;2023-03-24T11:27:59;94992.69;;;17.08;37.88
47763;BME280;33526;42.690;23.322;2023-03-24T11:30:48;94986.53;;;17.04;37.60
47763;BME280;33526;42.690;23.322;2023-03-24T11:38:42;94972.09;;;17.47;39.11
47763;BME280;33526;42.690;23.322;2023-03-24T11:43:43;94966.88;;;17.85;38.09
47763;BME280;33526;42.690;23.322;2023-03-24T11:46:12;94970.16;;;18.01;37.48
47763;BME280;33526;42.690;23.322;2023-03-24T11:53:53;94952.91;;;18.10;33.92
47763;BME280;33526;42.690;23.322;2023-03-24T11:56:40;94943.91;;;18.53;33.40
47763;BME280;33526;42.690;23.322;2023-03-24T12:02:21;94938.50;;;18.91;33.93
47763;BME280;33526;42.690;23.322;2023-03-24T12:10:58;94926.72;;;19.36;33.17
47763;BME280;33526;42.690;23.322;2023-03-24T12:13:41;94933.44;;;19.33;33.27
47763;BME280;33526;42.690;23.322;2023-03-24T12:30:21;94890.44;;;19.78;31.73
47763;BME280;33526;42.690;23.322;2023-03-24T12:33:13;94897.44;;;19.53;31.93
47763;BME280;33526;42.690;23.322;2023-03-24T12:49:45;94863.69;;;20.82;27.29
47763;BME280;33526;42.690;23.322;2023-03-24T12:52:23;94864.97;;;20.81;27.09
47763;BME280;33526;42.690;23.322;2023-03-24T12:57:36;94856.44;;;20.68;27.51
47763;BME280;33526;42.690;23.322;2023-03-24T13:00:11;94860.28;;;20.51;27.61
47763;BME280;33526;42.690;23.322;2023-03-24T13:02:44;94855.41;;;20.14;28.37
47763;BME280;33526;42.690;23.322;2023-03-24T13:05:36;94850.66;;;19.84;28.34
47763;BME280;33526;42.690;23.322;2023-03-24T13:08:17;94841.00;;;19.93;28.30
47763;BME280;33526;42.690;23.322;2023-03-24T13:13:28;94846.72;;;19.68;29.03
47763;BME280;33526;42.690;23.322;2023-03-24T13:16:20;94840.97;;;19.55;28.86
47763;BME280;33526;42.690;23.322;2023-03-24T13:21:32;94831.78;;;19.67;29.56
47763;BME280;33526;42.690;23.322;2023-03-24T13:32:24;94832.22;;;19.53;29.33
47763;BME280;33526;42.690;23.322;2023-03-24T13:37:34;94827.69;;;19.44;29.71
47763;BME280;33526;42.690;23.322;2023-03-24T13:42:47;94815.06;;;19.45;29.75
47763;BME280;33526;42.690;23.322;2023-03-24T13:53:34;94813.38;;;20.12;27.53
47763;BME280;33526;42.690;23.322;2023-03-24T13:56:01;94801.19;;;20.17;27.86
47763;BME280;33526;42.690;23.322;2023-03-24T13:58:44;94802.03;;;20.12;27.53
47763;BME280;33526;42.690;23.322;2023-03-24T14:03:37;94792.69;;;20.17;27.63
47763;BME280;33526;42.690;23.322;2023-03-24T14:06:03;94794.25;;;19.80;27.98
47763;BME280;33526;42.690;23.322;2023-03-24T14:10:57;94784.25;;;19.55;28.56
47763;BME280;33526;42.690;23.322;2023-03-24T14:13:33;94775.09;;;19.86;27.74
47763;BME280;33526;42.690;23.322;2023-03-24T14:16:25;94774.31;;;19.86;28.27
47763;BME280;33526;42.690;23.322;2023-03-24T14:24:30;94767.56;;;19.89;28.14
47763;BME280;33526;42.690;23.322;2023-03-24T14:47:41;94777.09;;;19.92;27.12
47763;BME280;33526;42.690;23.322;2023-03-24T14:50:17;94774.69;;;19.96;27.20
47763;BME280;33526;42.690;23.322;2023-03-24T14:52:48;94774.09;;;20.16;27.41
47763;BME280;33526;42.690;23.322;2023-03-24T14:55:16;94769.84;;;20.10;26.92
47763;BME280;33526;42.690;23.322;2023-03-24T15:00:39;94768.63;;;20.05;26.87
47763;BME280;33526;42.690;23.322;2023-03-24T15:08:19;94752.53;;;19.75;27.38
47763;BME280;33526;42.690;23.322;2023-03-24T15:18:51;94751.72;;;20.13;26.84
47763;BME280;33526;42.690;23.322;2023-03-24T15:23:53;94760.06;;;20.24;27.05
47763;BME280;33526;42.690;23.322;2023-03-24T15:26:37;94760.31;;;20.07;27.48
47763;BME280;33526;42.690;23.322;2023-03-24T15:29:07;94753.75;;;19.99;27.38
47763;BME280;33526;42.690;23.322;2023-03-24T15:31:36;94762.50;;;19.82;27.63
47763;BME280;33526;42.690;23.322;2023-03-24T15:39:56;94759.44;;;19.61;28.42
47763;BME280;33526;42.690;23.322;2023-03-24T15:42:22;94747.94;;;19.53;28.36
47763;BME280;33526;42.690;23.322;2023-03-24T15:44:48;94750.84;;;19.66;28.30
47763;BME280;33526;42.690;23.322;2023-03-24T15:54:44;94746.41;;;19.33;29.70
47763;BME280;33526;42.690;23.322;2023-03-24T16:02:20;94750.72;;;18.96;31.21
47763;BME280;33526;42.690;23.322;2023-03-24T16:05:30;94753.19;;;18.81;31.38
47763;BME280;33526;42.690;23.322;2023-03-24T16:26:35;94755.81;;;18.18;32.79
47763;BME280;33526;42.690;23.322;2023-03-24T16:39:52;94749.72;;;17.72;34.30
47763;BME280;33526;42.690;23.322;2023-03-24T16:42:28;94748.50;;;17.62;34.45
47763;BME280;33526;42.690;23.322;2023-03-24T16:47:44;94753.75;;;17.47;35.36
47763;BME280;33526;42.690;23.322;2023-03-24T16:50:37;94749.97;;;17.33;35.73
47763;BME280;33526;42.690;23.322;2023-03-24T16:53:11;94751.53;;;17.23;35.94
47763;BME280;33526;42.690;23.322;2023-03-24T17:08:52;94755.81;;;16.65;38.42
47763;BME280;33526;42.690;23.322;2023-03-24T17:11:36;94755.59;;;16.52;38.14
47763;BME280;33526;42.690;23.322;2023-03-24T17:14:08;94755.09;;;16.42;37.84
47763;BME280;33526;42.690;23.322;2023-03-24T17:16:39;94763.81;;;16.38;38.16
47763;BME280;33526;42.690;23.322;2023-03-24T17:19:08;94764.34;;;16.31;38.56
47763;BME280;33526;42.690;23.322;2023-03-24T17:21:36;94757.69;;;16.23;39.07
47763;BME280;33526;42.690;23.322;2023-03-24T17:24:02;94772.56;;;16.18;39.63
47763;BME280;33526;42.690;23.322;2023-03-24T17:26:31;94764.38;;;16.14;39.63
47763;BME280;33526;42.690;23.322;2023-03-24T17:28:57;94769.25;;;16.08;40.21
47763;BME280;33526;42.690;23.322;2023-03-24T17:31:25;94773.34;;;16.01;40.46
47763;BME280;33526;42.690;23.322;2023-03-24T17:49:55;94776.84;;;15.51;45.11
47763;BME280;33526;42.690;23.322;2023-03-24T17:52:24;94763.75;;;15.37;47.00
47763;BME280;33526;42.690;23.322;2023-03-24T17:55:01;94783.66;;;15.16;48.23
47763;BME280;33526;42.690;23.322;2023-03-24T18:00:31;94776.59;;;14.89;50.73